sensor_id;sensor_type;location;lat;lon;timestamp;pressure;altitude;pressure_sealevel;temperature
70668;BMP280;58242;51.250;-1.118;2023-08-24T00:02:07;100279.88;;;25.89
70668;BMP280;58242;51.250;-1.118;2023-08-24T00:04:33;100276.44;;;25.85
70668;BMP280;58242;51.250;-1.118;2023-08-24T00:06:59;100274.50;;;25.82
70668;BMP280;58242;51.250;-1.118;2023-08-24T00:09:26;100265.97;;;25.77
70668;BMP280;58242;51.250;-1.118;2023-08-24T00:11:51;100268.00;;;25.73
70668;BMP280;58242;51.250;-1.118;2023-08-24T00:14:17;100262.22;;;25.68
70668;BMP280;58242;51.250;-1.118;2023-08-24T00:16:42;100263.47;;;25.63
70668;BMP280;58242;51.250;-1.118;2023-08-24T00:19:07;100267.81;;;25.61
70668;BMP280;58242;51.250;-1.118;2023-08-24T00:21:33;100260.84;;;25.56
70668;BMP280;58242;51.250;-1.118;2023-08-24T00:23:58;100255.44;;;25.53
70668;BMP280;58242;51.250;-1.118;2023-08-24T00:26:25;100257.84;;;25.51
70668;BMP280;58242;51.250;-1.118;2023-08-24T00:28:50;100252.44;;;25.48
70668;BMP280;58242;51.250;-1.118;2023-08-24T00:31:15;100251.28;;;25.45
70668;BMP280;58242;51.250;-1.118;2023-08-24T00:33:41;100245.88;;;25.42
70668;BMP280;58242;51.250;-1.118;2023-08-24T00:36:07;100239.28;;;25.39
70668;BMP280;58242;51.250;-1.118;2023-08-24T00:38:32;100236.94;;;25.38
70668;BMP280;58242;51.250;-1.118;2023-08-24T00:40:58;100234.59;;;25.37
70668;BMP280;58242;51.250;-1.118;2023-08-24T00:43:27;100240.06;;;25.37
70668;BMP280;58242;51.250;-1.118;2023-08-24T00:45:53;100233.13;;;25.32
70668;BMP280;58242;51.250;-1.118;2023-08-24T00:48:20;100233.53;;;25.31
70668;BMP280;58242;51.250;-1.118;2023-08-24T00:50:51;100227.72;;;25.29
70668;BMP280;58242;51.250;-1.118;2023-08-24T00:53:17;100231.66;;;25.28
70668;BMP280;58242;51.250;-1.118;2023-08-24T00:55:44;100230.09;;;25.27
70668;BMP280;58242;51.250;-1.118;2023-08-24T00:58:09;100230.50;;;25.25
70668;BMP280;58242;51.250;-1.118;2023-08-24T01:00:35;100216.81;;;25.25
70668;BMP280;58242;51.250;-1.118;2023-08-24T01:03:00;100221.53;;;25.25
70668;BMP280;58242;51.250;-1.118;2023-08-24T01:05:25;100214.50;;;25.24
70668;BMP280;58242;51.250;-1.118;2023-08-24T01:07:51;100204.34;;;25.24
70668;BMP280;58242;51.250;-1.118;2023-08-24T01:10:16;100188.69;;;25.25
70668;BMP280;58242;51.250;-1.118;2023-08-24T01:18:11;100170.34;;;25.22
70668;BMP280;58242;51.250;-1.118;2023-08-24T01:20:40;100187.53;;;25.22
70668;BMP280;58242;51.250;-1.118;2023-08-24T01:23:17;100182.84;;;25.23
70668;BMP280;58242;51.250;-1.118;2023-08-24T01:25:52;100186.78;;;25.22
70668;BMP280;58242;51.250;-1.118;2023-08-24T01:28:19;100179.34;;;25.22
70668;BMP280;58242;51.250;-1.118;2023-08-24T01:30:46;100157.88;;;25.21
70668;BMP280;58242;51.250;-1.118;2023-08-24T01:33:11;100155.16;;;25.21
70668;BMP280;58242;51.250;-1.118;2023-08-24T01:35:38;100144.19;;;25.21
70668;BMP280;58242;51.250;-1.118;2023-08-24T01:38:04;100125.84;;;25.18
70668;BMP280;58242;51.250;-1.118;2023-08-24T01:40:54;100117.69;;;25.15
70668;BMP280;58242;51.250;-1.118;2023-08-24T01:43:25;100106.75;;;25.15
70668;BMP280;58242;51.250;-1.118;2023-08-24T01:45:55;100101.72;;;25.13
70668;BMP280;58242;51.250;-1.118;2023-08-24T01:48:21;100101.78;;;25.10
70668;BMP280;58242;51.250;-1.118;2023-08-24T01:50:47;100089.69;;;25.07
70668;BMP280;58242;51.250;-1.118;2023-08-24T01:53:12;100097.59;;;25.02
70668;BMP280;58242;51.250;-1.118;2023-08-24T01:55:38;100104.31;;;24.98
70668;BMP280;58242;51.250;-1.118;2023-08-24T01:58:03;100132.13;;;24.93
70668;BMP280;58242;51.250;-1.118;2023-08-24T02:00:28;100145.88;;;24.89
70668;BMP280;58242;51.250;-1.118;2023-08-24T02:02:54;100144.75;;;24.87
70668;BMP280;58242;51.250;-1.118;2023-08-24T02:05:19;100131.13;;;24.84
70668;BMP280;58242;51.250;-1.118;2023-08-24T02:07:44;100114.34;;;24.82
70668;BMP280;58242;51.250;-1.118;2023-08-24T02:10:10;100130.06;;;24.78
70668;BMP280;58242;51.250;-1.118;2023-08-24T02:12:35;100128.56;;;24.73
70668;BMP280;58242;51.250;-1.118;2023-08-24T02:15:00;100142.72;;;24.69
70668;BMP280;58242;51.250;-1.118;2023-08-24T02:17:26;100150.59;;;24.63
70668;BMP280;58242;51.250;-1.118;2023-08-24T02:19:51;100152.59;;;24.59
70668;BMP280;58242;51.250;-1.118;2023-08-24T02:22:17;100156.56;;;24.55
70668;BMP280;58242;51.250;-1.118;2023-08-24T02:24:42;100148.41;;;24.52
70668;BMP280;58242;51.250;-1.118;2023-08-24T02:27:08;100144.94;;;24.48
70668;BMP280;58242;51.250;-1.118;2023-08-24T02:29:33;100131.31;;;24.44
70668;BMP280;58242;51.250;-1.118;2023-08-24T02:31:59;100123.59;;;24.39
70668;BMP280;58242;51.250;-1.118;2023-08-24T02:34:24;100102.22;;;24.35
70668;BMP280;58242;51.250;-1.118;2023-08-24T02:36:49;100104.25;;;24.27
70668;BMP280;58242;51.250;-1.118;2023-08-24T02:39:14;100102.75;;;24.23
70668;BMP280;58242;51.250;-1.118;2023-08-24T02:41:40;100114.94;;;24.18
70668;BMP280;58242;51.250;-1.118;2023-08-24T02:44:05;100128.25;;;24.13
70668;BMP280;58242;51.250;-1.118;2023-08-24T02:46:30;100125.16;;;24.11
70668;BMP280;58242;51.250;-1.118;2023-08-24T02:48:56;100108.41;;;24.09
70668;BMP280;58242;51.250;-1.118;2023-08-24T02:51:22;100092.00;;;24.09
70668;BMP280;58242;51.250;-1.118;2023-08-24T02:53:48;100068.63;;;24.08
70668;BMP280;58242;51.250;-1.118;2023-08-24T02:56:14;100070.16;;;24.09
70668;BMP280;58242;51.250;-1.118;2023-08-24T02:58:39;100065.91;;;24.08
70668;BMP280;58242;51.250;-1.118;2023-08-24T03:01:06;100063.53;;;24.10
70668;BMP280;58242;51.250;-1.118;2023-08-24T03:03:35;100070.50;;;24.15
70668;BMP280;58242;51.250;-1.118;2023-08-24T03:06:05;100071.63;;;24.17
70668;BMP280;58242;51.250;-1.118;2023-08-24T03:08:31;100065.31;;;24.20
70668;BMP280;58242;51.250;-1.118;2023-08-24T03:10:58;100069.19;;;24.22
70668;BMP280;58242;51.250;-1.118;2023-08-24T03:13:24;100085.94;;;24.24
70668;BMP280;58242;51.250;-1.118;2023-08-24T03:15:49;100091.78;;;24.26
70668;BMP280;58242;51.250;-1.118;2023-08-24T03:18:16;100106.56;;;24.29
70668;BMP280;58242;51.250;-1.118;2023-08-24T03:20:42;100090.19;;;24.29
70668;BMP280;58242;51.250;-1.118;2023-08-24T03:23:07;100052.69;;;24.29
70668;BMP280;58242;51.250;-1.118;2023-08-24T03:25:37;100028.50;;;24.28
70668;BMP280;58242;51.250;-1.118;2023-08-24T03:28:04;100002.41;;;24.27
70668;BMP280;58242;51.250;-1.118;2023-08-24T03:30:29;99967.69;;;24.24
70668;BMP280;58242;51.250;-1.118;2023-08-24T03:32:55;99987.66;;;24.21
70668;BMP280;58242;51.250;-1.118;2023-08-24T03:35:20;100006.38;;;24.22
70668;BMP280;58242;51.250;-1.118;2023-08-24T03:37:45;100006.72;;;24.24
70668;BMP280;58242;51.250;-1.118;2023-08-24T03:40:12;100034.41;;;24.26
70668;BMP280;58242;51.250;-1.118;2023-08-24T03:42:37;100047.63;;;24.28
70668;BMP280;58242;51.250;-1.118;2023-08-24T03:45:03;100079.25;;;24.29
70668;BMP280;58242;51.250;-1.118;2023-08-24T03:47:28;100069.09;;;24.29
70668;BMP280;58242;51.250;-1.118;2023-08-24T03:49:53;100032.81;;;24.29
70668;BMP280;58242;51.250;-1.118;2023-08-24T03:52:20;100019.97;;;24.26
70668;BMP280;58242;51.250;-1.118;2023-08-24T03:54:45;100012.25;;;24.21
70668;BMP280;58242;51.250;-1.118;2023-08-24T03:57:11;100040.38;;;24.18
70668;BMP280;58242;51.250;-1.118;2023-08-24T03:59:36;100077.47;;;24.19
70668;BMP280;58242;51.250;-1.118;2023-08-24T04:02:01;100096.56;;;24.19
70668;BMP280;58242;51.250;-1.118;2023-08-24T04:04:27;100102.38;;;24.21
70668;BMP280;58242;51.250;-1.118;2023-08-24T04:06:53;100104.72;;;24.22
70668;BMP280;58242;51.250;-1.118;2023-08-24T04:09:18;100053.59;;;24.23
70668;BMP280;58242;51.250;-1.118;2023-08-24T04:11:43;100006.72;;;24.24
70668;BMP280;58242;51.250;-1.118;2023-08-24T04:14:09;100002.03;;;24.25
70668;BMP280;58242;51.250;-1.118;2023-08-24T04:16:34;100004.41;;;24.23
70668;BMP280;58242;51.250;-1.118;2023-08-24T04:18:59;100021.59;;;24.23
70668;BMP280;58242;51.250;-1.118;2023-08-24T04:21:24;100053.59;;;24.23
70668;BMP280;58242;51.250;-1.118;2023-08-24T04:23:50;100064.88;;;24.25
70668;BMP280;58242;51.250;-1.118;2023-08-24T04:26:15;100058.22;;;24.26
70668;BMP280;58242;51.250;-1.118;2023-08-24T04:28:41;100047.63;;;24.28
70668;BMP280;58242;51.250;-1.118;2023-08-24T04:31:06;100047.63;;;24.28
70668;BMP280;58242;51.250;-1.118;2023-08-24T04:33:32;100020.38;;;24.24
70668;BMP280;58242;51.250;-1.118;2023-08-24T04:35:58;100026.69;;;24.21
70668;BMP280;58242;51.250;-1.118;2023-08-24T04:38:23;100038.78;;;24.20
70668;BMP280;58242;51.250;-1.118;2023-08-24T04:40:53;100045.03;;;24.21
70668;BMP280;58242;51.250;-1.118;2023-08-24T04:43:20;100041.09;;;24.22
70668;BMP280;58242;51.250;-1.118;2023-08-24T04:45:46;100039.94;;;24.23
70668;BMP280;58242;51.250;-1.118;2023-08-24T04:48:13;100062.13;;;24.25
70668;BMP280;58242;51.250;-1.118;2023-08-24T04:50:38;100059.41;;;24.25
70668;BMP280;58242;51.250;-1.118;2023-08-24T04:53:04;100045.34;;;24.26
70668;BMP280;58242;51.250;-1.118;2023-08-24T04:55:29;100023.09;;;24.24
70668;BMP280;58242;51.250;-1.118;2023-08-24T04:57:54;100014.97;;;24.21
70668;BMP280;58242;51.250;-1.118;2023-08-24T05:00:20;100020.88;;;24.19
70668;BMP280;58242;51.250;-1.118;2023-08-24T05:02:45;100036.47;;;24.19
70668;BMP280;58242;51.250;-1.118;2023-08-24T05:05:10;100054.41;;;24.20
70668;BMP280;58242;51.250;-1.118;2023-08-24T05:07:37;100044.25;;;24.20
70668;BMP280;58242;51.250;-1.118;2023-08-24T05:10:03;100039.56;;;24.21
70668;BMP280;58242;51.250;-1.118;2023-08-24T05:12:29;100021.59;;;24.20
70668;BMP280;58242;51.250;-1.118;2023-08-24T05:14:54;100016.16;;;24.20
70668;BMP280;58242;51.250;-1.118;2023-08-24T05:17:20;100013.00;;;24.21
70668;BMP280;58242;51.250;-1.118;2023-08-24T05:19:50;100016.53;;;24.22
70668;BMP280;58242;51.250;-1.118;2023-08-24T05:22:15;100007.72;;;24.11
70668;BMP280;58242;51.250;-1.118;2023-08-24T05:24:41;100006.44;;;24.19
70668;BMP280;58242;51.250;-1.118;2023-08-24T05:27:06;100019.25;;;24.22
70668;BMP280;58242;51.250;-1.118;2023-08-24T05:29:31;100016.13;;;24.23
70668;BMP280;58242;51.250;-1.118;2023-08-24T05:31:57;100014.50;;;24.26
70668;BMP280;58242;51.250;-1.118;2023-08-24T05:34:22;100015.63;;;24.28
70668;BMP280;58242;51.250;-1.118;2023-08-24T05:36:47;100014.78;;;24.31
70668;BMP280;58242;51.250;-1.118;2023-08-24T05:39:12;100029.59;;;24.34
70668;BMP280;58242;51.250;-1.118;2023-08-24T05:41:38;100019.81;;;24.36
70668;BMP280;58242;51.250;-1.118;2023-08-24T05:44:03;100012.75;;;24.38
70668;BMP280;58242;51.250;-1.118;2023-08-24T05:46:29;100009.19;;;24.41
70668;BMP280;58242;51.250;-1.118;2023-08-24T05:48:55;99993.13;;;24.43
70668;BMP280;58242;51.250;-1.118;2023-08-24T05:51:20;100000.94;;;24.45
70668;BMP280;58242;51.250;-1.118;2023-08-24T05:53:46;100014.16;;;24.46
70668;BMP280;58242;51.250;-1.118;2023-08-24T05:56:11;100014.53;;;24.48
70668;BMP280;58242;51.250;-1.118;2023-08-24T05:58:37;100005.50;;;24.51
70668;BMP280;58242;51.250;-1.118;2023-08-24T06:01:02;100000.03;;;24.51
70668;BMP280;58242;51.250;-1.118;2023-08-24T06:03:27;99975.03;;;24.52
70668;BMP280;58242;51.250;-1.118;2023-08-24T06:05:53;99976.16;;;24.55
70668;BMP280;58242;51.250;-1.118;2023-08-24T06:08:18;100014.03;;;24.56
70668;BMP280;58242;51.250;-1.118;2023-08-24T06:10:43;100014.03;;;24.56
70668;BMP280;58242;51.250;-1.118;2023-08-24T06:13:09;99994.47;;;24.58
70668;BMP280;58242;51.250;-1.118;2023-08-24T06:15:34;99986.28;;;24.58
70668;BMP280;58242;51.250;-1.118;2023-08-24T06:17:59;99979.22;;;24.60
70668;BMP280;58242;51.250;-1.118;2023-08-24T06:20:25;99974.88;;;24.63
70668;BMP280;58242;51.250;-1.118;2023-08-24T06:22:51;99989.31;;;24.63
70668;BMP280;58242;51.250;-1.118;2023-08-24T06:25:16;99998.28;;;24.64
70668;BMP280;58242;51.250;-1.118;2023-08-24T06:27:41;100012.28;;;24.66
70668;BMP280;58242;51.250;-1.118;2023-08-24T06:30:07;100009.56;;;24.66
70668;BMP280;58242;51.250;-1.118;2023-08-24T06:32:32;100006.06;;;24.65
70668;BMP280;58242;51.250;-1.118;2023-08-24T06:34:58;99990.50;;;24.62
70668;BMP280;58242;51.250;-1.118;2023-08-24T06:37:24;99980.31;;;24.63
70668;BMP280;58242;51.250;-1.118;2023-08-24T06:39:50;99975.63;;;24.63
70668;BMP280;58242;51.250;-1.118;2023-08-24T06:42:15;99966.25;;;24.64
70668;BMP280;58242;51.250;-1.118;2023-08-24T06:44:40;99963.94;;;24.63
70668;BMP280;58242;51.250;-1.118;2023-08-24T06:47:06;99968.63;;;24.62
70668;BMP280;58242;51.250;-1.118;2023-08-24T06:49:31;99994.41;;;24.61
70668;BMP280;58242;51.250;-1.118;2023-08-24T06:51:56;100003.38;;;24.62
70668;BMP280;58242;51.250;-1.118;2023-08-24T06:54:21;99990.84;;;24.64
70668;BMP280;58242;51.250;-1.118;2023-08-24T06:56:48;99991.63;;;24.65
70668;BMP280;58242;51.250;-1.118;2023-08-24T06:59:13;99981.81;;;24.67
70668;BMP280;58242;51.250;-1.118;2023-08-24T07:01:39;99970.47;;;24.69
70668;BMP280;58242;51.250;-1.118;2023-08-24T07:04:05;99977.84;;;24.71
70668;BMP280;58242;51.250;-1.118;2023-08-24T07:06:33;99978.53;;;24.75
70668;BMP280;58242;51.250;-1.118;2023-08-24T07:08:59;99967.53;;;24.79
70668;BMP280;58242;51.250;-1.118;2023-08-24T07:11:24;99948.34;;;24.82
70668;BMP280;58242;51.250;-1.118;2023-08-24T07:13:51;99949.38;;;24.88
70668;BMP280;58242;51.250;-1.118;2023-08-24T07:16:18;99956.25;;;24.96
70668;BMP280;58242;51.250;-1.118;2023-08-24T07:18:44;99959.63;;;25.03
70668;BMP280;58242;51.250;-1.118;2023-08-24T07:21:09;99961.41;;;25.13
70668;BMP280;58242;51.250;-1.118;2023-08-24T07:23:34;99951.13;;;25.20
70668;BMP280;58242;51.250;-1.118;2023-08-24T07:26:00;99958.84;;;25.25
70668;BMP280;58242;51.250;-1.118;2023-08-24T07:28:25;99938.41;;;25.29
70668;BMP280;58242;51.250;-1.118;2023-08-24T07:30:50;99941.84;;;25.33
70668;BMP280;58242;51.250;-1.118;2023-08-24T07:33:18;99925.34;;;25.37
70668;BMP280;58242;51.250;-1.118;2023-08-24T07:35:43;99916.31;;;25.39
70668;BMP280;58242;51.250;-1.118;2023-08-24T07:38:09;99908.00;;;25.43
70668;BMP280;58242;51.250;-1.118;2023-08-24T07:40:34;99899.72;;;25.46
70668;BMP280;58242;51.250;-1.118;2023-08-24T07:42:59;99873.03;;;25.50
70668;BMP280;58242;51.250;-1.118;2023-08-24T07:45:25;99853.53;;;25.48
70668;BMP280;58242;51.250;-1.118;2023-08-24T07:47:51;99874.69;;;25.48
70668;BMP280;58242;51.250;-1.118;2023-08-24T07:50:17;99876.97;;;25.49
70668;BMP280;58242;51.250;-1.118;2023-08-24T07:52:42;99869.13;;;25.51
70668;BMP280;58242;51.250;-1.118;2023-08-24T07:55:08;99855.75;;;25.53
70668;BMP280;58242;51.250;-1.118;2023-08-24T07:57:34;99858.88;;;25.55
70668;BMP280;58242;51.250;-1.118;2023-08-24T08:00:00;99856.88;;;25.55
70668;BMP280;58242;51.250;-1.118;2023-08-24T08:02:25;99850.13;;;25.60
70668;BMP280;58242;51.250;-1.118;2023-08-24T08:04:55;99864.09;;;25.65
70668;BMP280;58242;51.250;-1.118;2023-08-24T08:07:21;99857.66;;;25.72
70668;BMP280;58242;51.250;-1.118;2023-08-24T08:09:47;99859.03;;;25.79
70668;BMP280;58242;51.250;-1.118;2023-08-24T08:12:12;99832.72;;;25.85
70668;BMP280;58242;51.250;-1.118;2023-08-24T08:14:37;99822.88;;;25.88
70668;BMP280;58242;51.250;-1.118;2023-08-24T08:17:02;99839.56;;;25.93
70668;BMP280;58242;51.250;-1.118;2023-08-24T08:19:28;99855.81;;;26.00
70668;BMP280;58242;51.250;-1.118;2023-08-24T08:21:53;99871.38;;;26.03
70668;BMP280;58242;51.250;-1.118;2023-08-24T08:24:19;99867.09;;;26.02
70668;BMP280;58242;51.250;-1.118;2023-08-24T08:26:44;99865.56;;;26.01
70668;BMP280;58242;51.250;-1.118;2023-08-24T08:29:09;99866.00;;;25.99
70668;BMP280;58242;51.250;-1.118;2023-08-24T08:31:35;99865.56;;;26.01
70668;BMP280;58242;51.250;-1.118;2023-08-24T08:34:00;99871.38;;;26.03
70668;BMP280;58242;51.250;-1.118;2023-08-24T08:36:26;99889.72;;;26.06
70668;BMP280;58242;51.250;-1.118;2023-08-24T08:38:51;99911.91;;;26.11
70668;BMP280;58242;51.250;-1.118;2023-08-24T08:41:21;99927.28;;;26.21
70668;BMP280;58242;51.250;-1.118;2023-08-24T08:43:47;99931.31;;;26.32
70668;BMP280;58242;51.250;-1.118;2023-08-24T08:46:14;99935.34;;;26.43
70668;BMP280;58242;51.250;-1.118;2023-08-24T08:48:40;99923.78;;;26.51
70668;BMP280;58242;51.250;-1.118;2023-08-24T08:51:06;99917.34;;;26.58
70668;BMP280;58242;51.250;-1.118;2023-08-24T08:53:32;99923.75;;;26.67
70668;BMP280;58242;51.250;-1.118;2023-08-24T08:55:57;99918.44;;;26.76
70668;BMP280;58242;51.250;-1.118;2023-08-24T08:58:28;99910.31;;;26.84
70668;BMP280;58242;51.250;-1.118;2023-08-24T09:00:55;99893.59;;;26.94
70668;BMP280;58242;51.250;-1.118;2023-08-24T09:03:20;99890.66;;;27.01
70668;BMP280;58242;51.250;-1.118;2023-08-24T09:05:46;99904.28;;;27.05
70668;BMP280;58242;51.250;-1.118;2023-08-24T09:08:14;99914.28;;;27.11
70668;BMP280;58242;51.250;-1.118;2023-08-24T09:10:40;99903.78;;;27.34
70668;BMP280;58242;51.250;-1.118;2023-08-24T09:13:05;99890.22;;;27.79
70668;BMP280;58242;51.250;-1.118;2023-08-24T09:15:34;99891.63;;;28.32
70668;BMP280;58242;51.250;-1.118;2023-08-24T09:18:00;99886.00;;;29.10
70668;BMP280;58242;51.250;-1.118;2023-08-24T09:20:27;99870.69;;;29.81
70668;BMP280;58242;51.250;-1.118;2023-08-24T09:22:54;99868.38;;;30.35
70668;BMP280;58242;51.250;-1.118;2023-08-24T09:25:22;99873.59;;;30.68
70668;BMP280;58242;51.250;-1.118;2023-08-24T09:27:56;99895.22;;;31.13
70668;BMP280;58242;51.250;-1.118;2023-08-24T09:30:21;99896.84;;;31.55
70668;BMP280;58242;51.250;-1.118;2023-08-24T09:32:46;99888.75;;;31.83
70668;BMP280;58242;51.250;-1.118;2023-08-24T09:35:12;99890.53;;;32.03
70668;BMP280;58242;51.250;-1.118;2023-08-24T09:37:38;99889.03;;;32.16
70668;BMP280;58242;51.250;-1.118;2023-08-24T09:40:05;99883.53;;;32.39
70668;BMP280;58242;51.250;-1.118;2023-08-24T09:42:37;99882.28;;;32.86
70668;BMP280;58242;51.250;-1.118;2023-08-24T09:45:03;99876.22;;;33.81
70668;BMP280;58242;51.250;-1.118;2023-08-24T09:47:32;99879.06;;;34.97
70668;BMP280;58242;51.250;-1.118;2023-08-24T09:49:59;99887.72;;;36.14
70668;BMP280;58242;51.250;-1.118;2023-08-24T09:52:28;99886.66;;;37.26
70668;BMP280;58242;51.250;-1.118;2023-08-24T09:54:57;99893.75;;;38.39
70668;BMP280;58242;51.250;-1.118;2023-08-24T09:57:24;99895.31;;;39.35
70668;BMP280;58242;51.250;-1.118;2023-08-24T09:59:51;99899.44;;;40.20
70668;BMP280;58242;51.250;-1.118;2023-08-24T10:02:20;99906.03;;;40.45
70668;BMP280;58242;51.250;-1.118;2023-08-24T10:04:47;99903.75;;;40.67
70668;BMP280;58242;51.250;-1.118;2023-08-24T10:07:15;99907.16;;;40.78
70668;BMP280;58242;51.250;-1.118;2023-08-24T10:10:02;99908.03;;;40.92
70668;BMP280;58242;51.250;-1.118;2023-08-24T10:12:29;99911.16;;;41.42
70668;BMP280;58242;51.250;-1.118;2023-08-24T10:14:59;99906.28;;;42.04
70668;BMP280;58242;51.250;-1.118;2023-08-24T10:17:29;99895.53;;;42.71
70668;BMP280;58242;51.250;-1.118;2023-08-24T10:19:58;99879.84;;;43.01
70668;BMP280;58242;51.250;-1.118;2023-08-24T10:22:27;99887.84;;;42.71
70668;BMP280;58242;51.250;-1.118;2023-08-24T10:24:53;99883.22;;;42.36
70668;BMP280;58242;51.250;-1.118;2023-08-24T10:27:20;99893.09;;;42.55
70668;BMP280;58242;51.250;-1.118;2023-08-24T10:29:46;99898.69;;;42.93
70668;BMP280;58242;51.250;-1.118;2023-08-24T10:32:11;99909.94;;;43.38
70668;BMP280;58242;51.250;-1.118;2023-08-24T10:34:37;99908.59;;;43.72
70668;BMP280;58242;51.250;-1.118;2023-08-24T10:37:09;99907.38;;;44.27
70668;BMP280;58242;51.250;-1.118;2023-08-24T10:39:43;99901.50;;;44.72
70668;BMP280;58242;51.250;-1.118;2023-08-24T10:42:13;99913.75;;;44.82
70668;BMP280;58242;51.250;-1.118;2023-08-24T10:44:39;99907.03;;;44.85
70668;BMP280;58242;51.250;-1.118;2023-08-24T10:47:16;99910.00;;;45.21
70668;BMP280;58242;51.250;-1.118;2023-08-24T10:50:01;99901.28;;;45.05
70668;BMP280;58242;51.250;-1.118;2023-08-24T10:52:30;99898.44;;;44.36
70668;BMP280;58242;51.250;-1.118;2023-08-24T10:54:56;99896.09;;;43.80
70668;BMP280;58242;51.250;-1.118;2023-08-24T11:00:07;99896.84;;;42.32
70668;BMP280;58242;51.250;-1.118;2023-08-24T11:02:48;99893.84;;;41.69
70668;BMP280;58242;51.250;-1.118;2023-08-24T11:05:16;99895.69;;;41.18
70668;BMP280;58242;51.250;-1.118;2023-08-24T11:07:56;99881.16;;;40.60
70668;BMP280;58242;51.250;-1.118;2023-08-24T11:10:26;99873.28;;;40.12
70668;BMP280;58242;51.250;-1.118;2023-08-24T11:15:54;99868.16;;;39.24
70668;BMP280;58242;51.250;-1.118;2023-08-24T11:18:24;99878.50;;;38.95
70668;BMP280;58242;51.250;-1.118;2023-08-24T11:21:00;99883.25;;;38.61
70668;BMP280;58242;51.250;-1.118;2023-08-24T11:23:27;99877.78;;;38.29
70668;BMP280;58242;51.250;-1.118;2023-08-24T11:25:53;99885.44;;;37.96
70668;BMP280;58242;51.250;-1.118;2023-08-24T11:28:31;99883.19;;;37.79
70668;BMP280;58242;51.250;-1.118;2023-08-24T11:30:58;99887.97;;;37.62
70668;BMP280;58242;51.250;-1.118;2023-08-24T11:33:31;99876.81;;;37.41
70668;BMP280;58242;51.250;-1.118;2023-08-24T11:35:57;99872.22;;;37.22
70668;BMP280;58242;51.250;-1.118;2023-08-24T11:38:23;99854.47;;;37.09
70668;BMP280;58242;51.250;-1.118;2023-08-24T11:40:48;99846.59;;;36.97
70668;BMP280;58242;51.250;-1.118;2023-08-24T11:43:24;99847.09;;;37.16
70668;BMP280;58242;51.250;-1.118;2023-08-24T11:45:51;99847.13;;;37.70
70668;BMP280;58242;51.250;-1.118;2023-08-24T11:48:17;99848.91;;;37.94
70668;BMP280;58242;51.250;-1.118;2023-08-24T11:50:42;99848.63;;;37.98
70668;BMP280;58242;51.250;-1.118;2023-08-24T11:53:07;99831.34;;;38.04
70668;BMP280;58242;51.250;-1.118;2023-08-24T11:55:33;99829.16;;;38.58
70668;BMP280;58242;51.250;-1.118;2023-08-24T11:57:59;99826.00;;;39.22
70668;BMP280;58242;51.250;-1.118;2023-08-24T12:00:25;99823.06;;;39.39
70668;BMP280;58242;51.250;-1.118;2023-08-24T12:02:52;99820.97;;;39.16
70668;BMP280;58242;51.250;-1.118;2023-08-24T12:05:21;99813.31;;;38.82
70668;BMP280;58242;51.250;-1.118;2023-08-24T12:07:47;99827.69;;;38.47
70668;BMP280;58242;51.250;-1.118;2023-08-24T12:10:13;99825.50;;;38.08
70668;BMP280;58242;51.250;-1.118;2023-08-24T12:12:38;99829.88;;;37.66
70668;BMP280;58242;51.250;-1.118;2023-08-24T12:15:03;99825.81;;;37.19
70668;BMP280;58242;51.250;-1.118;2023-08-24T12:17:29;99823.66;;;36.71
70668;BMP280;58242;51.250;-1.118;2023-08-24T12:19:59;99827.78;;;36.24
70668;BMP280;58242;51.250;-1.118;2023-08-24T12:22:25;99819.69;;;35.80
70668;BMP280;58242;51.250;-1.118;2023-08-24T12:24:50;99820.34;;;35.40
70668;BMP280;58242;51.250;-1.118;2023-08-24T12:27:20;99798.75;;;34.99
70668;BMP280;58242;51.250;-1.118;2023-08-24T12:29:46;99786.53;;;34.67
70668;BMP280;58242;51.250;-1.118;2023-08-24T12:32:12;99783.72;;;34.42
70668;BMP280;58242;51.250;-1.118;2023-08-24T12:34:37;99792.34;;;34.24
70668;BMP280;58242;51.250;-1.118;2023-08-24T12:37:02;99789.88;;;34.12
70668;BMP280;58242;51.250;-1.118;2023-08-24T12:39:28;99774.84;;;33.99
70668;BMP280;58242;51.250;-1.118;2023-08-24T12:41:53;99777.50;;;33.88
70668;BMP280;58242;51.250;-1.118;2023-08-24T12:44:18;99765.16;;;33.75
70668;BMP280;58242;51.250;-1.118;2023-08-24T12:46:43;99778.88;;;33.65
70668;BMP280;58242;51.250;-1.118;2023-08-24T12:49:09;99767.34;;;33.52
70668;BMP280;58242;51.250;-1.118;2023-08-24T12:51:34;99769.69;;;33.39
70668;BMP280;58242;51.250;-1.118;2023-08-24T12:53:59;99771.38;;;33.23
70668;BMP280;58242;51.250;-1.118;2023-08-24T12:56:25;99784.69;;;33.05
70668;BMP280;58242;51.250;-1.118;2023-08-24T12:58:50;99784.09;;;32.87
70668;BMP280;58242;51.250;-1.118;2023-08-24T13:01:16;99776.91;;;32.66
70668;BMP280;58242;51.250;-1.118;2023-08-24T13:03:42;99777.09;;;32.49
70668;BMP280;58242;51.250;-1.118;2023-08-24T13:06:07;99780.59;;;32.35
70668;BMP280;58242;51.250;-1.118;2023-08-24T13:08:32;99787.59;;;32.22
70668;BMP280;58242;51.250;-1.118;2023-08-24T13:10:57;99775.22;;;32.09
70668;BMP280;58242;51.250;-1.118;2023-08-24T13:13:23;99765.47;;;31.99
70668;BMP280;58242;51.250;-1.118;2023-08-24T13:15:51;99754.28;;;31.94
70668;BMP280;58242;51.250;-1.118;2023-08-24T13:18:17;99731.72;;;31.95
70668;BMP280;58242;51.250;-1.118;2023-08-24T13:20:42;99736.13;;;32.16
70668;BMP280;58242;51.250;-1.118;2023-08-24T13:23:08;99732.59;;;32.38
70668;BMP280;58242;51.250;-1.118;2023-08-24T13:25:33;99734.44;;;32.55
70668;BMP280;58242;51.250;-1.118;2023-08-24T13:27:59;99729.56;;;32.64
70668;BMP280;58242;51.250;-1.118;2023-08-24T13:30:24;99728.44;;;32.71
70668;BMP280;58242;51.250;-1.118;2023-08-24T13:32:49;99711.69;;;32.80
70668;BMP280;58242;51.250;-1.118;2023-08-24T13:35:15;99712.09;;;32.87
70668;BMP280;58242;51.250;-1.118;2023-08-24T13:37:40;99715.75;;;32.93
70668;BMP280;58242;51.250;-1.118;2023-08-24T13:40:06;99709.72;;;32.94
70668;BMP280;58242;51.250;-1.118;2023-08-24T13:42:32;99699.13;;;32.93
70668;BMP280;58242;51.250;-1.118;2023-08-24T13:44:58;99678.13;;;32.86
70668;BMP280;58242;51.250;-1.118;2023-08-24T13:47:23;99674.19;;;32.79
70668;BMP280;58242;51.250;-1.118;2023-08-24T13:49:48;99717.34;;;32.71
70668;BMP280;58242;51.250;-1.118;2023-08-24T13:52:14;99707.31;;;32.59
70668;BMP280;58242;51.250;-1.118;2023-08-24T13:54:41;99714.38;;;32.46
70668;BMP280;58242;51.250;-1.118;2023-08-24T13:57:06;99701.28;;;32.32
70668;BMP280;58242;51.250;-1.118;2023-08-24T13:59:32;99668.06;;;32.18